This is the latest recevied weather packets stored in our database for station/object NN5DX-13. If no packets are shown the sender has not sent any weather packets the latest 10 day(s).
| Time | Temp. | Humidity | Pressure | Rain* | Wind** | Luminosity | Snow |
|---|---|---|---|---|---|---|---|
| 1778196917 | 21.67° C | 53% | 1014.2 hPa | 0 mm | - | - | - |
| 1778196616 | 22.22° C | 52% | 1014.1 hPa | 0 mm | - | - | - |
| 1778196316 | 21.67° C | 52% | 1014 hPa | 0 mm | - | - | - |
| 1778196016 | 21.67° C | 52% | 1014 hPa | 0 mm | - | - | - |
| 1778195716 | 21.67° C | 52% | 1014 hPa | 0 mm | - | - | - |
| 1778195416 | 21.67° C | 52% | 1014 hPa | 0 mm | - | - | - |
| 1778195116 | 21.67° C | 52% | 1014.1 hPa | 0 mm | - | - | - |
| 1778194816 | 21.11° C | 53% | 1014.1 hPa | 0 mm | - | - | - |
| 1778194516 | 21.11° C | 53% | 1014.2 hPa | 0 mm | - | - | - |
| 1778194216 | 21.67° C | 52% | 1014.4 hPa | 0 mm | - | - | - |
| 1778193917 | 21.67° C | 52% | 1014.5 hPa | 0 mm | - | - | - |
| 1778193616 | 21.11° C | 53% | 1014.3 hPa | 0 mm | - | - | - |
| 1778193316 | 21.11° C | 53% | 1014.6 hPa | 0 mm | - | - | - |
| 1778193017 | 21.11° C | 52% | 1014.6 hPa | 0 mm | - | - | - |
| 1778192716 | 21.11° C | 52% | 1014.7 hPa | 0 mm | - | - | - |
| 1778192416 | 21.11° C | 53% | 1014.9 hPa | 0 mm | - | - | - |
| 1778192116 | 20.56° C | 54% | 1014.7 hPa | 0 mm | - | - | - |
| 1778191816 | 20.56° C | 53% | 1014.7 hPa | 0 mm | - | - | - |
| 1778191516 | 21.11° C | 53% | 1015 hPa | 0 mm | - | - | - |
| 1778191216 | 20.56° C | 53% | 1014.8 hPa | 0 mm | - | - | - |
| 1778190917 | 20.56° C | 52% | 1014.8 hPa | 0 mm | - | - | - |
| 1778190617 | 20.56° C | 52% | 1014.9 hPa | 0 mm | - | - | - |
| 1778190316 | 21.11° C | 51% | 1014.9 hPa | 0 mm | - | - | - |
| 1778190016 | 20.56° C | 52% | 1014.9 hPa | 0 mm | - | - | - |
| 1778189716 | 20.56° C | 51% | 1015.1 hPa | 0 mm | - | - | - |
* Rain latest hour (hover to see other rain measurements)
** Current wind speed in m/s (hover to see current wind gust speed)